createdAt,value
2022-11-12T00:01:12.000Z,9.75
2022-11-12T00:03:39.917Z,9.71
2022-11-12T00:06:09.424Z,9.83
2022-11-12T00:08:37.566Z,9.86
2022-11-12T00:11:06.072Z,9.85
2022-11-12T00:13:34.045Z,9.77
2022-11-12T00:16:02.117Z,9.80
2022-11-12T00:18:30.058Z,9.74
2022-11-12T00:20:58.068Z,9.68
2022-11-12T00:23:27.418Z,9.58
2022-11-12T00:26:02.554Z,9.70
2022-11-12T00:28:36.349Z,9.76
2022-11-12T00:31:12.175Z,9.80
2022-11-12T00:33:44.419Z,9.81
2022-11-12T00:36:13.119Z,9.76
2022-11-12T00:38:42.419Z,9.77
2022-11-12T00:41:10.560Z,9.72
2022-11-12T00:43:38.471Z,9.76
2022-11-12T00:46:06.501Z,9.76
2022-11-12T00:48:34.450Z,9.82
2022-11-12T00:51:04.549Z,9.83
2022-11-12T00:53:32.611Z,9.88
2022-11-12T00:56:06.563Z,9.89
2022-11-12T00:58:36.492Z,9.86
2022-11-12T01:01:09.475Z,9.85
2022-11-12T01:03:38.258Z,9.89
2022-11-12T01:06:07.197Z,9.87
2022-11-12T01:08:35.686Z,9.92
2022-11-12T01:11:10.008Z,9.88
2022-11-12T01:13:43.849Z,9.89
2022-11-12T01:16:15.888Z,9.90
2022-11-12T01:18:44.531Z,9.97
2022-11-12T01:21:13.399Z,9.93
2022-11-12T01:23:43.160Z,9.95
2022-11-12T01:26:15.109Z,9.95
2022-11-12T01:28:43.676Z,9.97
2022-11-12T01:31:13.429Z,9.93
2022-11-12T01:33:41.944Z,9.91
2022-11-12T01:36:11.048Z,9.97
2022-11-12T01:38:40.725Z,10.01
2022-11-12T01:41:10.335Z,9.95
2022-11-12T01:43:40.006Z,9.99
2022-11-12T01:46:15.266Z,9.87
2022-11-12T01:48:50.414Z,9.73
2022-11-12T01:51:19.757Z,9.75
2022-11-12T01:53:52.637Z,9.77
2022-11-12T01:56:21.765Z,9.86
2022-11-12T01:58:55.621Z,9.82
2022-11-12T02:01:23.575Z,9.83
2022-11-12T02:03:51.596Z,9.83
2022-11-12T02:06:21.562Z,9.77
2022-11-12T02:08:50.562Z,9.72
2022-11-12T02:11:20.345Z,9.65
2022-11-12T02:14:01.527Z,9.64
2022-11-12T02:16:34.027Z,9.62
2022-11-12T02:19:02.470Z,9.53
2022-11-12T02:21:32.338Z,9.51
2022-11-12T02:24:05.191Z,9.45
2022-11-12T02:26:35.512Z,9.40
2022-11-12T02:29:03.860Z,9.34
2022-11-12T02:31:32.058Z,9.35
2022-11-12T02:34:00.103Z,9.34
2022-11-12T02:36:28.396Z,9.24
2022-11-12T02:38:57.792Z,9.15
2022-11-12T02:41:25.860Z,9.15
2022-11-12T02:43:53.830Z,9.08
2022-11-12T02:46:21.957Z,9.16
2022-11-12T02:48:49.893Z,9.14
2022-11-12T02:51:17.834Z,9.18
2022-11-12T02:53:45.768Z,9.20
2022-11-12T02:56:15.072Z,9.18
2022-11-12T02:58:43.038Z,9.07
2022-11-12T03:01:11.025Z,9.17
2022-11-12T03:03:39.025Z,9.14
2022-11-12T03:06:07.819Z,9.13
2022-11-12T03:08:35.732Z,9.07
2022-11-12T03:11:07.867Z,9.04
2022-11-12T03:13:37.246Z,9.04
2022-11-12T03:16:05.552Z,9.01
2022-11-12T03:18:33.806Z,8.99
2022-11-12T03:21:01.897Z,8.97
2022-11-12T03:23:29.942Z,8.99
2022-11-12T03:25:58.255Z,8.93
2022-11-12T03:28:26.333Z,8.94
2022-11-12T03:30:58.793Z,8.85
2022-11-12T03:33:26.961Z,8.72
2022-11-12T03:35:54.947Z,8.82
2022-11-12T03:38:23.062Z,8.90
2022-11-12T03:40:51.178Z,8.94
2022-11-12T03:43:19.118Z,8.91
2022-11-12T03:45:47.045Z,8.64
2022-11-12T03:48:16.404Z,8.58
2022-11-12T03:50:44.384Z,8.60
2022-11-12T03:53:12.672Z,8.71
2022-11-12T03:55:40.672Z,8.87
2022-11-12T03:58:08.713Z,8.88
2022-11-12T04:00:36.667Z,8.90
2022-11-12T04:03:04.592Z,8.98
2022-11-12T04:05:51.805Z,9.02
2022-11-12T04:08:40.045Z,8.95
2022-11-12T04:11:12.644Z,9.00
2022-11-12T04:13:42.148Z,8.96
2022-11-12T04:16:29.898Z,9.03
2022-11-12T04:19:17.860Z,9.07
2022-11-12T04:21:52.234Z,9.11
2022-11-12T04:24:39.659Z,9.17
2022-11-12T04:27:08.708Z,9.20
2022-11-12T04:29:54.006Z,9.16
2022-11-12T04:32:22.877Z,9.17
2022-11-12T04:34:50.898Z,9.15
2022-11-12T04:37:23.469Z,9.14
2022-11-12T04:39:51.959Z,9.20
2022-11-12T04:42:37.570Z,9.21
2022-11-12T04:45:07.148Z,9.21
2022-11-12T04:47:36.884Z,9.18
2022-11-12T04:50:07.397Z,9.14
2022-11-12T04:52:36.701Z,9.18
2022-11-12T04:55:05.021Z,9.13
2022-11-12T04:57:32.994Z,9.16
2022-11-12T05:00:00.917Z,9.12
2022-11-12T05:02:28.849Z,9.17
2022-11-12T05:04:56.749Z,9.18
2022-11-12T05:07:24.665Z,9.18
2022-11-12T05:09:54.005Z,9.14
2022-11-12T05:12:21.912Z,9.17
2022-11-12T05:14:49.851Z,9.20
2022-11-12T05:17:17.784Z,9.11
2022-11-12T05:19:45.688Z,9.18
2022-11-12T05:22:33.258Z,9.17
2022-11-12T05:25:03.026Z,9.05
2022-11-12T05:27:30.993Z,9.13
2022-11-12T05:29:58.920Z,9.20
2022-11-12T05:32:27.820Z,9.29
2022-11-12T05:34:55.767Z,9.33
2022-11-12T05:37:23.685Z,9.41
2022-11-12T05:39:51.617Z,9.44
2022-11-12T05:42:20.885Z,9.46
2022-11-12T05:44:48.821Z,9.46
2022-11-12T05:47:16.741Z,9.48
2022-11-12T05:49:44.729Z,9.51
2022-11-12T05:52:12.665Z,9.39
2022-11-12T05:54:40.620Z,9.57
2022-11-12T05:57:08.528Z,9.67
2022-11-12T05:59:37.801Z,9.75
2022-11-12T06:02:05.769Z,9.84
2022-11-12T06:04:33.700Z,9.89
2022-11-12T06:07:04.254Z,9.88
2022-11-12T06:09:32.260Z,9.78
2022-11-12T06:12:00.201Z,9.90
2022-11-12T06:14:28.112Z,9.93
2022-11-12T06:16:57.407Z,10.03
2022-11-12T06:19:25.326Z,10.14
2022-11-12T06:21:53.242Z,10.21
2022-11-12T06:24:21.581Z,10.27
2022-11-12T06:26:49.534Z,10.33
2022-11-12T06:29:17.464Z,10.39
2022-11-12T06:31:45.369Z,10.43
2022-11-12T06:34:14.940Z,10.41
2022-11-12T06:36:42.868Z,10.49
2022-11-12T06:39:12.047Z,10.56
2022-11-12T06:41:40.028Z,10.62
2022-11-12T06:44:07.986Z,10.68
2022-11-12T06:46:35.890Z,10.81
2022-11-12T06:49:04.255Z,10.89
2022-11-12T06:51:33.558Z,10.81
2022-11-12T06:54:01.453Z,10.97
2022-11-12T06:56:29.381Z,11.07
2022-11-12T06:58:57.323Z,11.09
2022-11-12T07:01:25.388Z,10.74
2022-11-12T07:03:54.599Z,10.73
2022-11-12T07:06:22.790Z,10.73
2022-11-12T07:08:52.116Z,10.58
2022-11-12T07:11:21.184Z,10.38
2022-11-12T07:13:49.365Z,10.53
2022-11-12T07:16:18.855Z,10.63
2022-11-12T07:18:48.298Z,10.66
2022-11-12T07:21:18.484Z,10.48
2022-11-12T07:23:47.554Z,10.59
2022-11-12T07:26:18.884Z,10.53
2022-11-12T07:28:47.513Z,10.37
2022-11-12T07:31:16.672Z,10.31
2022-11-12T07:33:45.283Z,10.23
2022-11-12T07:36:14.809Z,10.24
2022-11-12T07:38:43.795Z,10.45
2022-11-12T07:41:13.641Z,10.61
2022-11-12T07:43:44.533Z,10.63
2022-11-12T07:46:15.041Z,10.67
2022-11-12T07:48:44.603Z,10.61
2022-11-12T07:51:15.232Z,10.63
2022-11-12T07:53:43.736Z,10.71
2022-11-12T07:56:13.273Z,10.82
2022-11-12T07:58:42.785Z,10.72
2022-11-12T08:01:11.688Z,10.73
2022-11-12T08:03:39.771Z,10.69
2022-11-12T08:06:08.411Z,10.72
2022-11-12T08:08:36.314Z,10.63
2022-11-12T08:11:04.264Z,10.72
2022-11-12T08:13:33.115Z,10.76
2022-11-12T08:16:02.589Z,10.84
2022-11-12T08:18:31.989Z,10.94
2022-11-12T08:21:03.383Z,10.98
2022-11-12T08:23:31.522Z,11.02
2022-11-12T08:26:00.291Z,10.85
2022-11-12T08:28:30.130Z,10.83
2022-11-12T08:30:59.751Z,10.93
2022-11-12T08:33:29.048Z,10.91
2022-11-12T08:35:57.873Z,10.87
2022-11-12T08:38:26.217Z,10.96
2022-11-12T08:40:54.348Z,10.87
2022-11-12T08:43:22.299Z,10.91
2022-11-12T08:45:50.344Z,10.99
2022-11-12T08:48:18.292Z,11.02
2022-11-12T08:50:47.603Z,11.08
2022-11-12T08:53:15.713Z,11.25
2022-11-12T08:55:43.640Z,11.08
2022-11-12T08:58:11.699Z,11.20
2022-11-12T09:00:43.214Z,11.11
2022-11-12T09:03:15.596Z,11.29
2022-11-12T09:05:44.160Z,11.22
2022-11-12T09:08:15.456Z,11.23
2022-11-12T09:10:43.463Z,11.46
2022-11-12T09:13:11.899Z,11.53
2022-11-12T09:15:40.017Z,11.43
2022-11-12T09:18:12.268Z,11.45
2022-11-12T09:20:40.264Z,11.60
2022-11-12T09:23:10.048Z,11.61
2022-11-12T09:25:39.776Z,11.72
2022-11-12T09:28:12.490Z,11.69
2022-11-12T09:30:45.528Z,11.68
2022-11-12T09:33:14.067Z,11.45
2022-11-12T09:35:42.004Z,11.40
2022-11-12T09:38:09.990Z,11.41
2022-11-12T09:40:48.925Z,11.46
2022-11-12T09:43:25.400Z,11.62
2022-11-12T09:46:21.510Z,11.84
2022-11-12T09:48:50.179Z,11.93
2022-11-12T09:51:23.200Z,12.12
2022-11-12T09:53:56.501Z,12.26
2022-11-12T09:56:28.291Z,12.22
2022-11-12T09:58:56.595Z,12.16
2022-11-12T10:01:33.386Z,11.98
2022-11-12T10:04:17.345Z,12.13
2022-11-12T10:06:51.396Z,12.30
2022-11-12T10:09:21.181Z,12.56
2022-11-12T10:12:21.788Z,12.65
2022-11-12T10:15:20.881Z,12.82
2022-11-12T10:17:53.244Z,12.72
2022-11-12T10:20:27.076Z,12.66
2022-11-12T10:23:11.056Z,12.65
2022-11-12T10:25:40.057Z,12.69
2022-11-12T10:28:19.903Z,12.69
2022-11-12T10:30:49.028Z,12.44
2022-11-12T10:33:16.981Z,12.37
2022-11-12T10:35:44.887Z,12.35
2022-11-12T10:38:16.999Z,12.43
2022-11-12T10:40:45.061Z,12.52
2022-11-12T10:43:24.279Z,12.72
2022-11-12T10:45:52.934Z,12.75
2022-11-12T10:48:27.301Z,12.57
2022-11-12T10:50:56.092Z,12.59
2022-11-12T10:53:33.917Z,12.56
2022-11-12T10:56:03.472Z,12.67
2022-11-12T10:58:33.338Z,12.70
2022-11-12T11:01:03.514Z,12.77
2022-11-12T11:03:34.737Z,12.72
2022-11-12T11:06:05.305Z,12.67
2022-11-12T11:08:41.585Z,12.60
2022-11-12T11:11:21.990Z,12.66
2022-11-12T11:13:55.554Z,12.67
2022-11-12T11:16:24.379Z,12.49
2022-11-12T11:18:56.219Z,12.51
2022-11-12T11:21:41.940Z,12.46
2022-11-12T11:24:26.817Z,12.62
2022-11-12T11:27:01.522Z,12.61
2022-11-12T11:29:52.952Z,12.72
2022-11-12T11:32:37.873Z,12.79
2022-11-12T11:35:21.781Z,12.89
2022-11-12T11:38:16.554Z,12.79
2022-11-12T11:40:51.596Z,12.77
2022-11-12T11:43:43.915Z,12.77
2022-11-12T11:46:20.994Z,12.73
2022-11-12T11:49:03.124Z,12.83
2022-11-12T11:51:41.440Z,12.76
2022-11-12T11:54:27.027Z,12.94
2022-11-12T11:56:59.857Z,12.87
2022-11-12T11:59:40.008Z,12.83
2022-11-12T12:02:29.948Z,13.10
2022-11-12T12:05:10.088Z,13.03
2022-11-12T12:07:47.204Z,13.00
2022-11-12T12:10:30.357Z,13.07
2022-11-12T12:13:20.285Z,13.11
2022-11-12T12:16:18.960Z,13.00
2022-11-12T12:18:55.758Z,13.27
2022-11-12T12:21:26.571Z,13.20
2022-11-12T12:23:59.372Z,12.89
2022-11-12T12:26:32.059Z,12.91
2022-11-12T12:29:07.320Z,12.90
2022-11-12T12:31:40.447Z,12.91
2022-11-12T12:34:19.433Z,12.90
2022-11-12T12:36:51.842Z,13.03
2022-11-12T12:39:23.848Z,13.11
2022-11-12T12:41:57.549Z,13.19
2022-11-12T12:44:46.288Z,13.14
2022-11-12T12:47:15.841Z,13.23
2022-11-12T12:49:47.053Z,13.35
2022-11-12T12:52:15.529Z,13.44
2022-11-12T12:54:59.660Z,13.41
2022-11-12T12:57:31.499Z,13.45
2022-11-12T13:00:33.802Z,13.42
2022-11-12T13:03:02.041Z,13.41
2022-11-12T13:05:33.464Z,13.51
2022-11-12T13:08:05.931Z,13.59
2022-11-12T13:10:52.227Z,13.65
2022-11-12T13:13:32.385Z,13.59
2022-11-12T13:16:02.818Z,13.47
2022-11-12T13:18:58.381Z,13.47
2022-11-12T13:21:27.976Z,13.56
2022-11-12T13:24:11.065Z,13.63
2022-11-12T13:26:51.395Z,13.68
2022-11-12T13:29:22.487Z,13.76
2022-11-12T13:31:50.800Z,13.68
2022-11-12T13:34:24.016Z,13.81
2022-11-12T13:37:03.783Z,13.80
2022-11-12T13:39:36.298Z,13.72
2022-11-12T13:42:31.481Z,13.70
2022-11-12T13:45:01.820Z,13.76
2022-11-12T13:47:30.027Z,13.74
2022-11-12T13:50:02.361Z,13.72
2022-11-12T13:52:31.950Z,13.76
2022-11-12T13:55:03.735Z,13.70
2022-11-12T13:57:33.383Z,13.67
2022-11-12T14:00:20.963Z,13.79
2022-11-12T14:02:53.161Z,13.75
2022-11-12T14:05:24.672Z,13.56
2022-11-12T14:08:20.592Z,13.64
2022-11-12T14:10:57.764Z,13.69
2022-11-12T14:13:44.150Z,13.72
2022-11-12T14:16:27.641Z,13.69
2022-11-12T14:19:18.576Z,13.63
2022-11-12T14:22:00.420Z,13.72
2022-11-12T14:24:29.903Z,13.77
2022-11-12T14:26:57.905Z,13.80
2022-11-12T14:29:29.914Z,13.74
2022-11-12T14:32:02.861Z,13.73
2022-11-12T14:34:33.192Z,13.72
2022-11-12T14:37:03.005Z,13.79
2022-11-12T14:39:32.356Z,13.82
2022-11-12T14:42:01.496Z,13.80
2022-11-12T14:44:35.803Z,13.82
2022-11-12T14:47:04.249Z,13.87
2022-11-12T14:49:42.390Z,13.79
2022-11-12T14:52:17.196Z,13.82
2022-11-12T14:54:50.527Z,13.79
2022-11-12T14:57:24.676Z,13.81
2022-11-12T14:59:52.619Z,13.81
2022-11-12T15:02:36.886Z,13.76
2022-11-12T15:05:15.522Z,13.79
2022-11-12T15:07:55.151Z,13.74
2022-11-12T15:10:33.272Z,13.73
2022-11-12T15:13:06.652Z,13.74
2022-11-12T15:15:36.137Z,13.68
2022-11-12T15:18:07.189Z,13.67
2022-11-12T15:20:35.307Z,13.65
2022-11-12T15:23:03.678Z,13.67
2022-11-12T15:25:33.448Z,13.69
2022-11-12T15:28:14.741Z,13.62
2022-11-12T15:30:42.791Z,13.62
2022-11-12T15:33:19.287Z,13.54
2022-11-12T15:35:56.367Z,13.60
2022-11-12T15:38:28.497Z,13.56
2022-11-12T15:40:58.493Z,13.38
2022-11-12T15:43:29.524Z,13.42
2022-11-12T15:45:58.276Z,13.44
2022-11-12T15:48:26.209Z,13.47
2022-11-12T15:50:55.154Z,13.43
2022-11-12T15:53:23.075Z,13.42
2022-11-12T15:55:53.125Z,13.42
2022-11-12T15:58:31.693Z,13.30
2022-11-12T16:00:59.893Z,13.33
2022-11-12T16:03:28.082Z,13.31
2022-11-12T16:05:56.149Z,13.28
2022-11-12T16:08:24.082Z,13.27
2022-11-12T16:10:52.170Z,13.22
2022-11-12T16:13:27.960Z,13.12
2022-11-12T16:15:56.899Z,12.99
2022-11-12T16:18:24.805Z,13.00
2022-11-12T16:20:52.883Z,13.02
2022-11-12T16:23:20.866Z,12.69
2022-11-12T16:25:49.162Z,12.58
2022-11-12T16:28:18.985Z,12.54
2022-11-12T16:30:50.732Z,12.59
2022-11-12T16:33:18.683Z,12.59
2022-11-12T16:35:46.715Z,12.52
2022-11-12T16:38:16.328Z,12.42
2022-11-12T16:40:45.679Z,12.27
2022-11-12T16:43:13.634Z,12.24
2022-11-12T16:45:44.358Z,12.15
2022-11-12T16:48:22.138Z,12.13
2022-11-12T16:50:50.288Z,12.06
2022-11-12T16:53:18.200Z,11.99
2022-11-12T16:55:46.211Z,11.95
2022-11-12T16:58:14.986Z,11.84
2022-11-12T17:00:45.329Z,11.84
2022-11-12T17:03:15.028Z,11.78
2022-11-12T17:05:43.169Z,11.67
2022-11-12T17:08:11.758Z,11.57
2022-11-12T17:10:39.752Z,11.52
2022-11-12T17:13:08.081Z,11.42
2022-11-12T17:15:35.993Z,11.38
2022-11-12T17:18:03.973Z,11.34
2022-11-12T17:20:34.093Z,11.26
2022-11-12T17:23:02.024Z,11.17
2022-11-12T17:25:29.973Z,11.02
2022-11-12T17:27:57.886Z,10.73
2022-11-12T17:30:25.819Z,10.49
2022-11-12T17:32:53.741Z,10.49
2022-11-12T17:35:21.641Z,10.26
2022-11-12T17:37:51.366Z,10.04
2022-11-12T17:40:19.415Z,9.96
2022-11-12T17:42:47.363Z,9.88
2022-11-12T17:45:15.413Z,9.95
2022-11-12T17:47:43.328Z,9.96
2022-11-12T17:50:11.245Z,9.98
2022-11-12T17:52:39.246Z,9.93
2022-11-12T17:55:09.508Z,9.91
2022-11-12T17:57:37.444Z,9.89
2022-11-12T18:00:06.377Z,9.93
2022-11-12T18:02:34.355Z,10.01
2022-11-12T18:05:02.296Z,10.06
2022-11-12T18:07:30.223Z,10.05
2022-11-12T18:09:58.146Z,9.94
2022-11-12T18:12:27.465Z,9.66
2022-11-12T18:14:55.387Z,9.60
2022-11-12T18:17:23.357Z,9.52
2022-11-12T18:19:51.249Z,9.48
2022-11-12T18:22:20.749Z,9.49
2022-11-12T18:24:49.044Z,9.50
2022-11-12T18:27:17.043Z,9.41
2022-11-12T18:29:47.036Z,9.35
2022-11-12T18:32:15.242Z,9.26
2022-11-12T18:34:45.235Z,9.24
2022-11-12T18:37:13.559Z,9.27
2022-11-12T18:39:41.528Z,9.19
2022-11-12T18:42:09.478Z,9.15
2022-11-12T18:44:37.429Z,9.06
2022-11-12T18:47:06.872Z,9.04
2022-11-12T18:49:34.796Z,9.03
2022-11-12T18:52:02.693Z,9.02
2022-11-12T18:54:31.553Z,8.95
2022-11-12T18:56:59.627Z,8.91
2022-11-12T18:59:30.789Z,8.87
2022-11-12T19:01:59.001Z,8.87
2022-11-12T19:04:28.337Z,8.82
2022-11-12T19:06:56.326Z,8.88
2022-11-12T19:09:24.308Z,8.88
2022-11-12T19:11:52.220Z,8.84
2022-11-12T19:14:20.163Z,8.83
2022-11-12T19:16:48.072Z,8.74
2022-11-12T19:19:16.329Z,8.83
2022-11-12T19:21:46.644Z,8.90
2022-11-12T19:24:14.651Z,8.86
2022-11-12T19:26:42.582Z,8.88
2022-11-12T19:29:10.514Z,8.90
2022-11-12T19:31:38.448Z,8.87
2022-11-12T19:34:06.351Z,8.94
2022-11-12T19:36:34.426Z,8.98
2022-11-12T19:39:03.709Z,8.88
2022-11-12T19:41:31.637Z,8.61
2022-11-12T19:43:59.541Z,8.57
2022-11-12T19:46:27.484Z,8.63
2022-11-12T19:48:55.541Z,8.66
2022-11-12T19:51:24.491Z,8.65
2022-11-12T19:53:52.481Z,8.56
2022-11-12T19:56:22.476Z,8.60
2022-11-12T19:58:54.966Z,8.63
2022-11-12T20:01:23.163Z,8.65
2022-11-12T20:03:51.193Z,8.61
2022-11-12T20:06:20.860Z,8.69
2022-11-12T20:08:48.787Z,8.67
2022-11-12T20:11:18.573Z,8.59
2022-11-12T20:13:47.921Z,8.75
2022-11-12T20:16:24.986Z,8.67
2022-11-12T20:18:55.641Z,8.88
2022-11-12T20:21:23.680Z,8.90
2022-11-12T20:23:51.622Z,8.97
2022-11-12T20:26:19.589Z,9.00
2022-11-12T20:28:48.947Z,9.01
2022-11-12T20:31:20.552Z,9.07
2022-11-12T20:33:49.743Z,9.06
2022-11-12T20:36:20.355Z,8.87
2022-11-12T20:38:50.089Z,8.90
2022-11-12T20:41:19.669Z,8.96
2022-11-12T20:43:49.116Z,9.03
2022-11-12T20:46:17.027Z,9.00
2022-11-12T20:48:44.942Z,9.07
2022-11-12T20:51:23.606Z,8.92
2022-11-12T20:53:58.704Z,9.11
2022-11-12T20:56:28.660Z,9.07
2022-11-12T20:58:58.253Z,9.22
2022-11-12T21:01:27.997Z,9.15
2022-11-12T21:03:56.272Z,9.09
2022-11-12T21:06:27.224Z,9.15
2022-11-12T21:08:55.164Z,9.06
2022-11-12T21:11:24.234Z,9.07
2022-11-12T21:13:52.297Z,8.98
2022-11-12T21:16:21.620Z,8.82
2022-11-12T21:18:49.547Z,8.76
2022-11-12T21:21:21.390Z,8.71
2022-11-12T21:23:51.038Z,8.58
2022-11-12T21:26:20.795Z,8.61
2022-11-12T21:28:50.704Z,8.72
2022-11-12T21:31:22.200Z,8.57
2022-11-12T21:33:51.270Z,8.66
2022-11-12T21:36:20.300Z,8.68
2022-11-12T21:38:48.632Z,8.71
2022-11-12T21:41:18.702Z,8.76
2022-11-12T21:43:47.608Z,8.75
2022-11-12T21:46:17.647Z,8.75
2022-11-12T21:48:52.224Z,8.75
2022-11-12T21:51:24.655Z,8.74
2022-11-12T21:53:55.343Z,8.71
2022-11-12T21:56:23.724Z,8.60
2022-11-12T21:58:51.793Z,8.60
2022-11-12T22:01:21.813Z,8.39
2022-11-12T22:03:53.104Z,8.40
2022-11-12T22:06:23.354Z,8.37
2022-11-12T22:08:52.994Z,8.36
2022-11-12T22:11:21.389Z,8.26
2022-11-12T22:13:49.478Z,8.05
2022-11-12T22:16:19.864Z,8.00
2022-11-12T22:18:50.744Z,7.88
2022-11-12T22:21:20.857Z,7.81
2022-11-12T22:23:48.809Z,7.80
2022-11-12T22:26:20.745Z,7.75
2022-11-12T22:28:49.056Z,7.79
2022-11-12T22:31:19.200Z,7.78
2022-11-12T22:33:47.827Z,7.82
2022-11-12T22:36:20.446Z,7.84
2022-11-12T22:38:50.245Z,7.91
2022-11-12T22:41:19.719Z,7.88
2022-11-12T22:43:48.277Z,7.87
2022-11-12T22:46:19.992Z,7.78
2022-11-12T22:48:47.936Z,7.80
2022-11-12T22:51:18.721Z,7.72
2022-11-12T22:53:47.247Z,7.75
2022-11-12T22:56:16.616Z,7.69
2022-11-12T22:58:46.472Z,7.76
2022-11-12T23:01:21.800Z,7.71
2022-11-12T23:03:50.914Z,7.74
2022-11-12T23:06:22.175Z,7.36
2022-11-12T23:08:50.468Z,7.54
2022-11-12T23:11:20.781Z,7.55
2022-11-12T23:13:49.457Z,7.43
2022-11-12T23:16:20.065Z,7.52
2022-11-12T23:18:48.325Z,7.49
2022-11-12T23:21:18.900Z,7.44
2022-11-12T23:23:48.205Z,7.48
2022-11-12T23:26:18.899Z,7.46
2022-11-12T23:28:46.897Z,7.50
2022-11-12T23:31:16.514Z,7.40
2022-11-12T23:33:48.170Z,7.55
2022-11-12T23:36:16.728Z,7.38
2022-11-12T23:38:45.252Z,7.48
2022-11-12T23:41:16.550Z,7.32
2022-11-12T23:43:44.927Z,7.22
2022-11-12T23:46:13.724Z,7.20
2022-11-12T23:48:42.385Z,7.18
2022-11-12T23:51:12.417Z,7.12
2022-11-12T23:53:40.938Z,7.14
2022-11-12T23:56:11.073Z,7.29
2022-11-12T23:58:41.658Z,7.28
